Impacts TAF Board
For situational awareness. Not to be used for flight planning purposes.
IDs:

KFKL - Franklin/Lamberton F, PA, US

Issued at 1723 UTC 02 Oct 2022
Updated at 1910 UTC 02 Oct 2022
Potential Impact None Slight Moderate High
Time1856Z 02/20Z 02/21Z 02/22Z 02/23Z 03/00Z 03/01Z 03/02Z 03/03Z 03/04Z 03/05Z 03/06Z 03/07Z 03/08Z>>
Type OBS PRVL PRVL PRVL PRVL PRVL PRVL PRVL PRVL PRVL PRVL PRVL PRVL PRVL
VIS 10 >6 >6 >6 >6 >6 >6 >6 >6 >6 >6 >6 >6 >6
CIG -- -- -- -- -- -- -- -- -- -- -- -- -- --
Cover CLR SCT SCT SCT SKC SKC SKC SKC SKC SKC SKC SKC SKC SKC
FltCat VFR VFR VFR VFR VFR VFR VFR VFR VFR VFR VFR VFR VFR VFR
WX -- -- -- -- -- -- -- -- -- -- -- -- -- --
WDir -- 30 30 30 40 40 40 40 40 40 40 40 40 40
WSpd -- 9 9 9 5 5 5 5 5 5 5 5 5 5
WGst -- 17 17 17 -- -- -- -- -- -- -- -- -- --
WSHgt -- -- -- -- -- -- -- -- -- -- -- -- -- --
WSDir -- -- -- -- -- -- -- -- -- -- -- -- -- --
WSSpd -- -- -- -- -- -- -- -- -- -- -- -- -- --
Raw TAF
KFKL 021723Z 0218/0318 03009G17KT P6SM SCT250
  FM022300 04005KT P6SM SKC


Raw METAR
KFKL 021856Z AUTO 10SM CLR 17/08 RMK AO2 SLPNO T01670078 $
KFKL 021756Z AUTO 03010G18KT 10SM CLR 16/08 A3019 RMK AO2 SLP225 T01610083 10161 20106 51002
KFKL 021656Z AUTO 04013KT 7SM CLR 14/08 A3019 RMK AO2 SLP224 T01440078

METAR Board
Radar Display
Forecast Discussion
For situational awareness. Not to be used for flight planning purposes.